Time;durP1;ratioP1;P1;durP2;ratioP2;P2;SDS_P1;SDS_P2;PMS_P1;PMS_P2;Temp;Humidity;BMP_temperature;BMP_pressure;BME280_temperature;BME280_humidity;BME280_pressure;Samples;Min_cycle;Max_cycle;Signal;HPM_P1;HPM_P2
2023/04/02 07:23:10;;;;;;;8.35;5.45;;;;;;;-145.79;72.99;78916.41;5278482;28;20411;-76
2023/04/02 07:25:41;;;;;;;5.95;5.35;;;;;;;-145.79;72.67;78920.66;5280929;28;20028;-76
2023/04/02 07:28:13;;;;;;;6.45;4.90;;;;;;;-145.79;72.67;78924.91;5280576;28;20052;-76
2023/04/02 07:30:46;;;;;;;6.20;4.65;;;;;;;-145.79;72.86;78922.78;5280715;28;20029;-76
2023/04/02 07:33:23;;;;;;;5.18;4.07;;;;;;;-145.79;72.77;78933.38;5277304;28;20033;-76
2023/04/02 07:35:56;;;;;;;7.10;4.30;;;;;;;-145.79;71.31;78948.22;5280917;28;20061;-77
2023/04/02 07:38:27;;;;;;;5.65;4.32;;;;;;;-145.79;71.30;78958.84;5257067;28;20461;-76
2023/04/02 07:41:04;;;;;;;5.95;4.32;;;;;;;-145.79;70.44;78977.91;5258220;28;20029;-77
2023/04/02 07:43:36;;;;;;;4.50;3.45;;;;;;;-145.79;71.38;78958.84;5261636;28;20477;-74
2023/04/02 07:46:09;;;;;;;4.60;3.90;;;;;;;-145.79;70.94;78971.56;5269437;28;20039;-76
2023/04/02 07:48:41;;;;;;;6.95;3.78;;;;;;;-145.79;70.52;78984.28;5279431;28;20049;-76
2023/04/02 07:51:19;;;;;;;5.35;4.00;;;;;;;-145.79;70.87;78967.31;5279662;28;20063;-76
2023/04/02 07:53:54;;;;;;;5.63;3.83;;;;;;;-145.79;71.05;78963.06;5265352;28;20377;-76
2023/04/02 07:56:26;;;;;;;5.97;4.40;;;;;;;-145.79;70.82;78948.22;5240093;28;20025;-76
2023/04/02 07:58:57;;;;;;;6.50;4.05;;;;;;;-145.79;70.88;78956.72;5264439;28;20059;-76
2023/04/02 08:01:33;;;;;;;5.72;4.13;;;;;;;-145.79;70.71;78971.56;5276527;28;20035;-77
2023/04/02 08:04:06;;;;;;;5.03;3.33;;;;;;;-145.79;70.06;78997.00;5271933;28;20033;-75
2023/04/02 08:06:37;;;;;;;6.13;3.40;;;;;;;-145.79;70.17;78973.69;5257896;28;20104;-76
2023/04/02 08:09:09;;;;;;;6.03;3.28;;;;;;;-145.79;70.27;78980.03;5262368;28;20112;-76
2023/04/02 08:11:41;;;;;;;3.72;3.03;;;;;;;-145.79;70.13;78992.75;5256929;28;20022;-75
2023/04/02 08:14:12;;;;;;;6.93;3.60;;;;;;;-145.79;70.22;78969.44;5248725;28;20033;-76
2023/04/02 08:16:54;;;;;;;4.45;3.58;;;;;;;-145.79;70.04;78980.03;5259387;28;20121;-77
2023/04/02 08:19:25;;;;;;;6.00;3.33;;;;;;;-145.79;70.13;78980.03;5259244;28;20039;-76
2023/04/02 08:21:57;;;;;;;5.78;3.47;;;;;;;-145.79;70.67;78973.69;5256993;28;20045;-76
2023/04/02 08:24:28;;;;;;;7.13;3.63;;;;;;;-145.79;68.98;78984.28;5265102;28;20021;-76
2023/04/02 08:27:01;;;;;;;5.90;3.75;;;;;;;-145.79;69.04;79007.59;5277292;28;20448;-76
2023/04/02 08:29:32;;;;;;;4.60;3.20;;;;;;;-145.79;68.68;78988.53;5254022;28;20022;-77
2023/04/02 08:32:03;;;;;;;4.13;3.20;;;;;;;-145.79;69.57;78973.69;5245927;28;20044;-76
2023/04/02 08:34:35;;;;;;;7.47;3.30;;;;;;;-145.79;68.74;79001.25;5246480;28;20032;-76
2023/04/02 08:37:10;;;;;;;3.88;3.45;;;;;;;-145.79;68.12;78999.13;5264940;28;20461;-76
2023/04/02 08:39:41;;;;;;;5.15;3.75;;;;;;;-145.79;69.01;78986.41;5263496;28;20025;-74
2023/04/02 08:42:27;;;;;;;5.03;2.80;;;;;;;-145.79;69.71;79003.34;5264022;28;20033;-77
2023/04/02 08:45:26;;;;;;;7.28;3.13;;;;;;;-145.79;69.87;78992.75;5264885;28;20063;-76
2023/04/02 08:47:58;;;;;;;6.78;3.35;;;;;;;-145.79;68.81;79001.25;5237266;28;20393;-76
2023/04/02 08:50:49;;;;;;;4.72;3.63;;;;;;;-145.79;69.06;79003.34;5243659;28;20029;-76
2023/04/02 08:53:27;;;;;;;4.40;3.08;;;;;;;-145.79;69.06;79005.47;5243596;28;20026;-76
2023/04/02 08:56:08;;;;;;;6.38;3.30;;;;;;;-145.79;68.18;79020.31;5244242;28;20749;-76
2023/04/02 08:58:53;;;;;;;6.32;3.20;;;;;;;-145.79;68.46;79005.47;5244401;28;20029;-76
2023/04/02 09:01:48;;;;;;;5.55;2.72;;;;;;;-145.79;67.86;79022.44;5243991;28;20117;-76
2023/04/02 09:04:23;;;;;;;5.93;3.08;;;;;;;-145.79;69.12;79009.72;5227099;28;20068;-76
2023/04/02 09:06:56;;;;;;;4.60;2.67;;;;;;;-145.79;67.67;79013.97;5244342;28;20077;-75
2023/04/02 09:09:27;;;;;;;4.50;2.50;;;;;;;-145.79;67.32;79016.09;5243549;28;20017;-76
2023/04/02 09:12:04;;;;;;;10.70;4.68;;;;;;;-145.79;67.33;79016.09;5242803;28;20029;-76
2023/04/02 09:14:42;;;;;;;5.32;2.90;;;;;;;-145.79;68.01;79026.69;5242626;28;20021;-75
2023/04/02 09:17:25;;;;;;;3.63;2.53;;;;;;;-145.79;67.85;79039.41;5244894;28;20104;-75
2023/04/02 09:20:00;;;;;;;5.10;2.90;;;;;;;-145.79;67.37;79033.06;5249616;28;20068;-72
2023/04/02 09:22:33;;;;;;;7.18;3.13;;;;;;;-145.79;66.12;79039.41;5242867;28;20057;-73
2023/04/02 09:25:15;;;;;;;3.47;2.70;;;;;;;-145.79;67.66;79037.28;5241604;28;20040;-76
2023/04/02 09:27:49;;;;;;;4.55;2.55;;;;;;;-145.79;67.87;79033.06;5244171;28;20559;-75
2023/04/02 09:30:42;;;;;;;4.70;3.13;;;;;;;-145.79;67.83;79028.81;5243063;28;20029;-75
2023/04/02 09:33:13;;;;;;;6.85;2.30;;;;;;;-145.79;66.55;79045.78;5242983;28;20026;-75
2023/04/02 09:35:48;;;;;;;4.80;3.38;;;;;;;-145.79;67.61;79037.28;5243966;28;20463;-76
2023/04/02 09:38:29;;;;;;;5.85;2.85;;;;;;;-145.79;67.15;79030.94;5236062;28;20033;-75
2023/04/02 09:41:05;;;;;;;6.32;2.70;;;;;;;-145.79;66.83;79041.53;5250130;28;20040;-75
2023/04/02 09:43:37;;;;;;;4.07;2.70;;;;;;;-145.79;66.98;79030.94;5260413;28;20063;-75
2023/04/02 09:46:12;;;;;;;4.93;2.47;;;;;;;-145.79;66.77;79030.94;5241366;28;20029;-76
2023/04/02 09:48:51;;;;;;;4.30;2.60;;;;;;;-145.79;66.21;79024.56;5260527;28;20029;-76
2023/04/02 09:51:25;;;;;;;4.88;2.70;;;;;;;-145.79;66.03;79033.06;5263127;28;20120;-74
2023/04/02 09:54:02;;;;;;;13.38;10.57;;;;;;;-145.79;66.53;79026.69;5221638;28;20057;-72
2023/04/02 09:56:36;;;;;;;4.10;2.80;;;;;;;-145.79;65.91;79062.72;5224345;28;20108;-70
2023/04/02 09:59:16;;;;;;;4.25;2.75;;;;;;;-145.79;66.25;79047.91;5221177;28;20053;-70
2023/04/02 10:01:53;;;;;;;10.90;8.70;;;;;;;-145.79;66.68;79028.81;5228336;28;20055;-73
2023/04/02 10:04:46;;;;;;;4.57;3.45;;;;;;;-145.79;66.05;79028.81;5261401;28;20093;-77
2023/04/02 10:07:36;;;;;;;5.70;3.00;;;;;;;-145.79;67.33;79039.41;5260545;28;20024;-77
2023/04/02 10:10:31;;;;;;;6.20;3.58;;;;;;;-145.79;66.65;79018.19;5261673;28;20068;-77
2023/04/02 10:13:05;;;;;;;4.68;2.67;;;;;;;-145.79;65.94;79062.72;5222866;28;20034;-75
2023/04/02 10:15:47;;;;;;;9.63;2.67;;;;;;;-145.79;66.95;79060.63;5242037;28;20037;-75
2023/04/02 10:18:29;;;;;;;8.38;3.13;;;;;;;-145.79;66.80;79073.34;5256354;28;20021;-74
2023/04/02 10:21:03;;;;;;;4.32;3.00;;;;;;;-145.79;66.98;79088.19;5261771;28;20529;-74
2023/04/02 10:23:35;;;;;;;4.90;3.10;;;;;;;-145.79;66.88;79094.53;5249028;28;20029;-75
2023/04/02 10:26:34;;;;;;;4.50;2.80;;;;;;;-145.79;67.24;79086.06;5242107;28;20060;-74
2023/04/02 10:29:14;;;;;;;4.18;2.50;;;;;;;-145.79;67.63;79103.03;5228073;28;20096;-74
2023/04/02 10:32:07;;;;;;;5.88;4.25;;;;;;;-145.79;67.48;79077.56;5224457;28;20087;-74
2023/04/02 10:34:55;;;;;;;6.45;3.10;;;;;;;-145.79;67.20;79086.06;5241055;28;20435;-74
2023/04/02 10:37:47;;;;;;;7.43;5.88;;;;;;;-145.79;67.20;79094.53;5251543;28;20021;-74
2023/04/02 10:40:41;;;;;;;3.55;2.38;;;;;;;-145.79;67.02;79100.91;5262626;28;20053;-75
2023/04/02 10:43:27;;;;;;;10.05;3.90;;;;;;;-145.79;66.96;79075.47;5259818;28;20036;-74
2023/04/02 10:46:01;;;;;;;5.00;2.90;;;;;;;-145.79;65.93;79111.50;5231580;28;20449;-74
2023/04/02 10:48:51;;;;;;;4.30;3.05;;;;;;;-145.79;66.20;79098.78;5261290;28;20073;-75
2023/04/02 10:51:34;;;;;;;5.40;2.85;;;;;;;-145.79;67.12;79096.66;5260473;28;20025;-73
2023/04/02 10:54:08;;;;;;;6.70;3.05;;;;;;;-145.79;66.94;79092.41;5262400;28;20120;-73
2023/04/02 10:56:41;;;;;;;2.88;2.60;;;;;;;-145.79;66.25;79115.75;5258199;28;20041;-75
2023/04/02 10:59:18;;;;;;;5.13;3.65;;;;;;;-145.79;66.24;79090.31;5241409;28;20037;-74
2023/04/02 11:01:51;;;;;;;3.35;2.67;;;;;;;-145.79;65.63;79083.94;5240127;28;20032;-74
2023/04/02 11:04:36;;;;;;;10.88;4.75;;;;;;;-145.79;66.61;79075.47;5242347;28;20385;-75
2023/04/02 11:07:16;;;;;;;3.65;2.65;;;;;;;-145.79;65.75;79086.06;5248662;28;20025;-75
2023/04/02 11:09:51;;;;;;;4.80;2.83;;;;;;;-145.79;64.78;79107.25;5261294;28;20114;-74
2023/04/02 11:12:57;;;;;;;3.72;3.20;;;;;;;-145.79;66.01;79094.53;5260239;28;20021;-73
2023/04/02 11:15:29;;;;;;;6.53;3.63;;;;;;;-145.79;65.42;79092.41;5220824;28;20050;-75
2023/04/02 11:18:00;;;;;;;5.50;3.20;;;;;;;-145.79;65.13;79079.69;5233040;28;20144;-74
2023/04/02 11:20:53;;;;;;;5.78;3.45;;;;;;;-145.79;64.97;79073.34;5243029;28;20037;-76
2023/04/02 11:23:53;;;;;;;3.17;2.88;;;;;;;-145.79;64.59;79077.56;5242085;28;20117;-80
2023/04/02 11:26:32;;;;;;;4.43;2.30;;;;;;;-145.79;64.81;79075.47;5240736;28;20228;-79
2023/04/02 11:29:12;;;;;;;6.80;3.92;;;;;;;-145.79;64.19;79071.22;5262242;28;20029;-79
2023/04/02 11:31:44;;;;;;;5.95;2.80;;;;;;;-145.79;63.98;79077.56;5255906;28;20432;-79
2023/04/02 11:34:39;;;;;;;3.33;2.65;;;;;;;-145.79;64.61;79064.84;5243330;28;20034;-80
2023/04/02 11:37:30;;;;;;;4.38;2.95;;;;;;;-145.79;63.85;79064.84;5239122;28;20041;-80
2023/04/02 11:40:10;;;;;;;6.43;3.20;;;;;;;-145.79;63.43;79052.13;5240623;28;20091;-79
2023/04/02 11:42:49;;;;;;;4.40;2.72;;;;;;;-145.79;63.76;79039.41;5248541;28;20033;-79
2023/04/02 11:45:21;;;;;;;15.52;13.30;;;;;;;-145.79;62.08;79069.09;5260479;28;20114;-79
2023/04/02 11:48:02;;;;;;;4.05;2.58;;;;;;;-145.79;63.76;79069.09;5261322;28;20029;-80
2023/04/02 11:50:44;;;;;;;4.00;2.45;;;;;;;-145.79;64.64;79047.91;5261598;28;20039;-78
2023/04/02 11:53:15;;;;;;;3.58;2.22;;;;;;;-145.79;64.03;79069.09;5240427;28;20458;-80
2023/04/02 11:55:52;;;;;;;4.53;2.53;;;;;;;-145.79;63.81;79060.63;5220056;28;20104;-79
2023/04/02 11:58:32;;;;;;;3.65;2.70;;;;;;;-145.79;62.82;79077.56;5252955;28;20029;-78
2023/04/02 12:01:28;;;;;;;2.97;2.33;;;;;;;-145.79;63.25;79066.97;5260700;28;20096;-76
2023/04/02 12:04:29;;;;;;;3.58;2.53;;;;;;;-145.79;63.20;79069.09;5254490;28;20033;-75
2023/04/02 12:07:09;;;;;;;5.30;2.88;;;;;;;-145.79;62.50;79083.94;5254914;28;20055;-75
2023/04/02 12:09:54;;;;;;;4.13;2.50;;;;;;;-145.79;62.94;79081.81;5255289;28;20022;-75
2023/04/02 12:12:32;;;;;;;3.97;2.30;;;;;;;-145.79;62.18;79094.53;5244605;28;20052;-77
2023/04/02 12:15:36;;;;;;;5.90;2.70;;;;;;;-145.79;62.75;79094.53;5243928;28;20028;-77
2023/04/02 12:18:21;;;;;;;4.45;3.28;;;;;;;-145.79;62.75;79096.66;5257415;28;20087;-77
2023/04/02 12:20:55;;;;;;;3.57;2.43;;;;;;;-145.79;62.38;79094.53;5264367;28;20021;-73
2023/04/02 12:23:32;;;;;;;5.93;2.85;;;;;;;-145.79;62.97;79094.53;5254387;28;20047;-76
2023/04/02 12:26:07;;;;;;;4.10;2.67;;;;;;;-145.79;62.15;79130.59;5250281;28;20599;-77
2023/04/02 12:28:41;;;;;;;18.75;16.75;;;;;;;-145.79;62.85;79120.00;5241088;28;20025;-76
2023/04/02 12:31:16;;;;;;;9.82;8.27;;;;;;;-145.79;63.05;79124.22;5242289;28;20029;-74
2023/04/02 12:33:50;;;;;;;;;;;;;;;-145.79;61.97;79103.03;5243806;28;20034;-76
2023/04/02 12:36:22;;;;;;;3.85;2.60;;;;;;;-145.79;62.43;79128.47;5263931;28;19969;-77
2023/04/02 12:38:56;;;;;;;7.63;2.80;;;;;;;-145.79;62.87;79128.47;5259193;28;20033;-77
2023/04/02 12:41:35;;;;;;;3.25;2.60;;;;;;;-145.79;62.59;79139.06;5264270;28;20472;-77
2023/04/02 12:44:21;;;;;;;3.75;2.20;;;;;;;-145.79;62.39;79143.31;5248697;28;20038;-77
2023/04/02 12:46:57;;;;;;;2.72;2.53;;;;;;;-145.79;62.67;79151.81;5228341;28;20480;-74
2023/04/02 12:49:36;;;;;;;4.35;2.38;;;;;;;-145.79;62.06;79136.94;5243084;28;20024;-74
2023/04/02 12:52:13;;;;;;;4.13;2.78;;;;;;;-145.79;62.41;79134.84;5264151;28;20041;-74
2023/04/02 12:54:53;;;;;;;3.63;2.00;;;;;;;-145.79;62.46;79136.94;5264590;28;20472;-74
2023/04/02 12:57:24;;;;;;;1.98;1.77;;;;;;;-145.79;61.64;79130.59;5262531;28;20025;-74
2023/04/02 13:00:19;;;;;;;3.28;2.72;;;;;;;-145.79;60.65;79120.00;5264481;28;20392;-77
2023/04/02 13:02:58;;;;;;;3.05;2.38;;;;;;;-145.79;61.73;79113.63;5233332;28;20108;-75
2023/04/02 13:05:36;;;;;;;4.20;2.72;;;;;;;-145.79;61.38;79098.78;5262455;28;20036;-75
2023/04/02 13:08:16;;;;;;;2.22;1.90;;;;;;;-145.79;61.53;79060.63;5263891;28;20021;-75
2023/04/02 13:10:57;;;;;;;3.08;2.20;;;;;;;-145.79;61.12;79007.59;5263391;28;20047;-75
2023/04/02 13:13:35;;;;;;;3.03;1.83;;;;;;;-145.79;59.10;78954.59;5256127;28;20025;-75
2023/04/02 13:16:31;;;;;;;2.95;1.90;;;;;;;-145.79;57.88;78924.91;5242513;28;20018;-75
2023/04/02 13:19:15;;;;;;;3.88;2.42;;;;;;;-145.79;58.27;78882.50;5222498;28;20112;-74
2023/04/02 13:21:47;;;;;;;2.67;1.90;;;;;;;-145.79;56.94;78888.84;5226444;28;20430;-76
2023/04/02 13:24:30;;;;;;;2.75;1.95;;;;;;;-145.79;57.15;78884.63;5253819;28;20151;-76
2023/04/02 13:27:02;;;;;;;3.45;2.17;;;;;;;-145.79;55.96;78886.75;5247829;28;20029;-77
2023/04/02 13:29:35;;;;;;;3.22;2.70;;;;;;;-145.79;55.14;78861.28;5264160;28;20091;-78
2023/04/02 13:32:11;;;;;;;3.75;2.10;;;;;;;-145.79;54.72;78857.06;5261571;28;20507;-79
2023/04/02 13:34:45;;;;;;;3.67;2.38;;;;;;;-145.79;54.27;78880.38;5255673;28;20098;-77
2023/04/02 13:37:17;;;;;;;3.97;2.28;;;;;;;-145.79;54.28;78901.56;5242362;28;20017;-76
2023/04/02 13:39:48;;;;;;;3.17;2.00;;;;;;;-145.79;55.23;78861.28;5250108;28;20387;-76
2023/04/02 13:42:19;;;;;;;6.97;2.50;;;;;;;-145.79;54.95;78844.31;5263789;28;20364;-75
2023/04/02 13:44:51;;;;;;;18.17;13.80;;;;;;;-145.79;53.75;78895.22;5249545;28;20026;-73
2023/04/02 13:47:22;;;;;;;4.88;2.17;;;;;;;-145.79;53.55;78882.50;5243634;28;20102;-74
2023/04/02 13:49:54;;;;;;;3.65;2.40;;;;;;;-145.79;53.28;78852.81;5242697;28;20025;-76
2023/04/02 13:52:25;;;;;;;4.38;2.38;;;;;;;-145.79;53.33;78861.28;5231074;28;20030;-77
2023/04/02 13:54:59;;;;;;;4.03;2.42;;;;;;;-145.79;53.26;78895.22;5236375;28;20024;-77
2023/04/02 13:57:30;;;;;;;3.67;2.30;;;;;;;-145.79;52.87;78825.25;5254655;28;20091;-76
2023/04/02 14:00:03;;;;;;;2.80;2.28;;;;;;;-145.79;51.71;78776.47;5241542;28;20492;-76
2023/04/02 14:02:45;;;;;;;4.90;2.35;;;;;;;-145.79;51.77;78755.28;5242031;28;20159;-76
2023/04/02 14:05:39;;;;;;;2.47;2.22;;;;;;;-145.79;51.76;78778.59;5242384;28;20077;-75
2023/04/02 14:08:18;;;;;;;2.50;2.10;;;;;;;-145.79;51.39;78808.28;5241652;28;20041;-77
2023/04/02 14:10:50;;;;;;;3.47;2.67;;;;;;;-145.79;49.88;78799.81;5237946;28;20484;-76
2023/04/02 14:14:03;;;;;;;3.20;2.53;;;;;;;-145.79;50.64;78757.38;5241467;28;20048;-77
2023/04/02 14:16:52;;;;;;;3.15;2.22;;;;;;;-145.79;50.69;78755.28;5227810;28;20447;-77
2023/04/02 14:19:32;;;;;;;5.78;2.97;;;;;;;-145.79;50.42;78687.41;5261997;28;20029;-77
2023/04/02 14:22:16;;;;;;;2.38;1.90;;;;;;;-145.79;49.74;78691.66;5262078;28;20056;-77
2023/04/02 14:25:12;;;;;;;4.03;2.75;;;;;;;-145.79;47.50;78702.25;5262614;28;20119;-78
2023/04/02 14:27:58;;;;;;;5.60;2.70;;;;;;;-145.79;47.73;78685.31;5234654;28;20477;-77
2023/04/02 14:30:47;;;;;;;3.75;3.20;;;;;;;-145.79;48.76;78638.66;5241932;28;20037;-77
2023/04/02 14:33:50;;;;;;;4.22;2.90;;;;;;;-145.79;48.69;78653.50;5241163;28;20033;-77
2023/04/02 14:36:42;;;;;;;4.75;3.08;;;;;;;-145.79;47.16;78619.56;5254348;28;20119;-77
2023/04/02 14:39:32;;;;;;;4.43;2.58;;;;;;;-145.79;46.40;78628.06;5260882;28;20075;-76
2023/04/02 14:42:15;;;;;;;4.10;3.25;;;;;;;-145.79;46.36;78645.00;5260072;28;20037;-76
2023/04/02 14:45:10;;;;;;;4.75;2.75;;;;;;;-145.79;46.42;78619.56;5221175;28;20025;-77
2023/04/02 14:47:50;;;;;;;5.47;3.35;;;;;;;-145.79;46.38;78611.09;5249371;28;20480;-76
2023/04/02 14:50:37;;;;;;;4.75;2.70;;;;;;;-145.79;46.08;78625.94;5256215;28;20025;-77
2023/04/02 14:53:26;;;;;;;4.85;2.67;;;;;;;-145.79;45.28;78642.91;5262385;28;20025;-78
2023/04/02 14:56:00;;;;;;;4.82;2.50;;;;;;;-145.79;45.78;78668.34;5261374;28;20476;-77
2023/04/02 14:58:40;;;;;;;5.80;2.70;;;;;;;-145.79;45.02;78636.53;5239594;28;20025;-76
2023/04/02 15:01:25;;;;;;;4.22;2.92;;;;;;;-145.79;46.13;78611.09;5224571;28;20472;-77
2023/04/02 15:04:05;;;;;;;4.82;2.60;;;;;;;-145.79;44.60;78628.06;5253482;28;20106;-77
2023/04/02 15:06:44;;;;;;;2.83;2.00;;;;;;;-145.79;45.06;78647.13;5262058;28;20025;-77
2023/04/02 15:09:24;;;;;;;6.18;2.33;;;;;;;-145.79;44.27;78621.69;5257858;28;20029;-77
2023/04/02 15:12:02;;;;;;;3.92;2.50;;;;;;;-145.79;43.98;78611.09;5229524;28;20591;-77
2023/04/02 15:14:52;;;;;;;3.25;2.35;;;;;;;-145.79;45.58;78585.66;5247335;28;20044;-76
2023/04/02 15:17:23;;;;;;;5.65;3.50;;;;;;;-145.79;44.66;78608.97;5246348;28;20104;-76
2023/04/02 15:20:11;;;;;;;3.53;2.28;;;;;;;-145.79;43.61;78602.59;5262389;28;20492;-77
2023/04/02 15:23:03;;;;;;;3.60;2.40;;;;;;;-145.79;44.21;78615.34;5259039;28;20056;-78
2023/04/02 15:25:49;;;;;;;3.83;1.90;;;;;;;-145.79;46.00;78577.16;5262400;28;20117;-77
2023/04/02 15:29:09;;;;;;;4.60;2.60;;;;;;;-145.79;46.03;78539.00;5261372;28;20426;-77
2023/04/02 15:31:44;;;;;;;3.55;2.40;;;;;;;-145.79;43.75;78583.53;5253302;28;20049;-77
2023/04/02 15:34:45;;;;;;;3.50;2.30;;;;;;;-145.79;44.26;78532.63;5240698;28;20022;-76
2023/04/02 15:37:16;;;;;;;5.22;2.22;;;;;;;-145.79;45.23;78530.53;5240307;28;20284;-76
2023/04/02 15:40:19;;;;;;;3.00;2.22;;;;;;;-145.79;44.65;78545.38;5241145;28;20381;-77
2023/04/02 15:43:28;;;;;;;3.78;2.25;;;;;;;-145.79;44.83;78530.53;5239297;28;20041;-77
2023/04/02 15:46:43;;;;;;;3.00;2.22;;;;;;;-145.79;44.75;78572.94;5244584;28;20425;-76
2023/04/02 15:49:40;;;;;;;2.67;2.13;;;;;;;-145.79;44.73;78581.41;5245009;28;20017;-76
2023/04/02 15:52:32;;;;;;;3.63;2.25;;;;;;;-145.79;44.20;78632.28;5224608;28;20034;-76
2023/04/02 15:55:31;;;;;;;3.83;2.20;;;;;;;-145.79;43.47;78600.50;5253531;28;20021;-76
2023/04/02 15:58:22;;;;;;;4.80;2.65;;;;;;;-145.79;43.56;78594.13;5244232;28;20084;-76
2023/04/02 16:01:14;;;;;;;2.85;2.25;;;;;;;-145.79;43.60;78615.34;5253681;28;20041;-75
2023/04/02 16:03:57;;;;;;;4.95;2.40;;;;;;;-145.79;44.11;78611.09;5251338;28;20109;-75
2023/04/02 16:06:59;;;;;;;5.05;2.47;;;;;;;-145.79;42.99;78655.63;5244033;28;20029;-75
2023/04/02 16:10:00;;;;;;;4.97;2.20;;;;;;;-145.79;44.16;78653.50;5226495;28;20480;-75
2023/04/02 16:12:36;;;;;;;3.38;1.90;;;;;;;-145.79;43.03;78638.66;5245788;28;20373;-74
2023/04/02 16:15:22;;;;;;;5.88;2.40;;;;;;;-145.79;43.39;78630.16;5244382;28;20034;-74
2023/04/02 16:17:57;;;;;;;;;;;;;;;-145.79;42.40;78606.84;5245064;28;20444;-74
2023/04/02 16:20:39;;;;;;;4.72;2.33;;;;;;;-145.79;43.27;78623.81;5246418;28;19975;-75
2023/04/02 16:23:15;;;;;;;3.17;2.38;;;;;;;-145.79;43.98;78611.09;5252029;28;20369;-74
2023/04/02 16:25:52;;;;;;;5.32;2.25;;;;;;;-145.79;42.83;78606.84;5239461;28;20021;-74
2023/04/02 16:28:33;;;;;;;3.88;2.10;;;;;;;-145.79;43.92;78608.97;5244563;28;20104;-74
2023/04/02 16:31:30;;;;;;;4.18;1.95;;;;;;;-145.79;43.48;78604.72;5244466;28;20025;-74
2023/04/02 16:34:23;;;;;;;3.97;1.88;;;;;;;-145.79;43.43;78619.56;5244023;28;20033;-74
2023/04/02 16:37:25;;;;;;;3.92;2.28;;;;;;;-145.79;43.81;78645.00;5244697;28;20034;-74
2023/04/02 16:40:25;;;;;;;3.30;2.20;;;;;;;-145.79;44.31;78630.16;5255330;28;20040;-74
2023/04/02 16:43:08;;;;;;;2.85;2.20;;;;;;;-145.79;43.45;78664.09;5229194;28;20038;-74
2023/04/02 16:45:58;;;;;;;2.38;1.90;;;;;;;-145.79;43.74;78689.53;5240333;28;20484;-75
2023/04/02 16:48:35;;;;;;;3.83;1.95;;;;;;;-145.79;42.94;78712.88;5243282;28;20030;-75
2023/04/02 16:51:29;;;;;;;5.90;2.40;;;;;;;-145.79;44.57;78706.50;5244439;28;20105;-75
2023/04/02 16:54:29;;;;;;;6.47;3.03;;;;;;;-145.79;44.51;78729.81;5243228;28;20056;-74
